Time;durP1;ratioP1;P1;durP2;ratioP2;P2;SDS_P1;SDS_P2;PMS_P1;PMS_P2;Temp;Humidity;BMP_temperature;BMP_pressure;BME280_temperature;BME280_humidity;BME280_pressure;Samples;Min_cycle;Max_cycle;Signal;HPM_P1;HPM_P2
2024/02/07 00:00:59;;;;;;;10.68;1.55;;;;;;;4.41;100.00;99759.38;4925989;29;20035;-73
2024/02/07 00:03:25;;;;;;;7.43;1.00;;;;;;;4.41;100.00;99760.19;4906542;29;20040;-73
2024/02/07 00:05:51;;;;;;;7.38;1.17;;;;;;;4.43;100.00;99759.94;4925391;29;20106;-73
2024/02/07 00:08:17;;;;;;;9.45;1.50;;;;;;;4.43;100.00;99757.28;4923278;29;20032;-72
2024/02/07 00:10:43;;;;;;;9.45;1.55;;;;;;;4.44;100.00;99759.66;4921697;29;20035;-72
2024/02/07 00:13:08;;;;;;;8.68;1.48;;;;;;;4.44;100.00;99754.34;4890930;29;20055;-73
2024/02/07 00:15:34;;;;;;;4.45;0.90;;;;;;;4.46;100.00;99754.91;4911449;29;20044;-73
2024/02/07 00:17:59;;;;;;;4.85;0.95;;;;;;;4.46;100.00;99741.66;4925070;29;20047;-73
2024/02/07 00:20:27;;;;;;;8.10;1.38;;;;;;;4.45;100.00;99734.75;4921270;29;20031;-73
2024/02/07 00:22:52;;;;;;;9.65;1.42;;;;;;;4.44;100.00;99743.75;4925013;29;20035;-72
2024/02/07 00:25:18;;;;;;;7.13;1.70;;;;;;;4.45;100.00;99749.84;4904930;29;20049;-73
2024/02/07 00:27:46;;;;;;;10.10;1.17;;;;;;;4.43;100.00;99752.78;4928453;29;20043;-73
2024/02/07 00:30:11;;;;;;;6.70;1.70;;;;;;;4.45;100.00;99755.16;4924043;29;20047;-73
2024/02/07 00:32:37;;;;;;;7.57;1.13;;;;;;;4.46;100.00;99751.44;4922866;29;20036;-73
2024/02/07 00:35:03;;;;;;;7.90;1.20;;;;;;;4.44;100.00;99754.34;4893231;29;20524;-74
2024/02/07 00:37:29;;;;;;;5.03;1.00;;;;;;;4.43;100.00;99757.28;4924355;29;20054;-74
2024/02/07 00:39:54;;;;;;;6.05;1.60;;;;;;;4.43;100.00;99751.97;4895289;29;20417;-75
2024/02/07 00:42:20;;;;;;;6.75;1.50;;;;;;;4.45;100.00;99752.50;4923271;29;20043;-74
2024/02/07 00:44:49;;;;;;;10.02;1.27;;;;;;;4.45;100.00;99757.81;4925213;29;20047;-73
2024/02/07 00:47:18;;;;;;;8.98;1.73;;;;;;;4.44;100.00;99749.06;4928575;29;20115;-74
2024/02/07 00:49:43;;;;;;;16.02;1.80;;;;;;;4.46;100.00;99751.44;4923788;29;20040;-72
2024/02/07 00:52:09;;;;;;;7.28;1.58;;;;;;;4.46;100.00;99757.56;4897953;29;20047;-73
2024/02/07 00:54:35;;;;;;;8.73;1.25;;;;;;;4.46;100.00;99757.56;4923447;29;20636;-73
2024/02/07 00:57:01;;;;;;;8.48;1.77;;;;;;;4.48;100.00;99755.47;4926466;29;20035;-72
2024/02/07 00:59:27;;;;;;;7.32;1.60;;;;;;;4.47;100.00;99747.75;4907686;29;20032;-73
2024/02/07 01:01:54;;;;;;;;;;;;;;;4.45;100.00;99755.97;4930620;28;20046;-73
2024/02/07 01:04:21;;;;;;;7.65;1.73;;;;;;;4.47;100.00;99756.53;4904465;29;20051;-73
2024/02/07 01:06:46;;;;;;;8.40;1.30;;;;;;;4.45;100.00;99761.25;4923303;29;20796;-75
2024/02/07 01:09:12;;;;;;;9.93;1.65;;;;;;;4.46;100.00;99746.94;4923322;29;20032;-73
2024/02/07 01:11:38;;;;;;;6.53;1.25;;;;;;;4.44;100.00;99754.34;4918135;29;20122;-73
2024/02/07 01:14:04;;;;;;;9.07;1.35;;;;;;;4.45;100.00;99755.16;4923292;29;20183;-73
2024/02/07 01:16:29;;;;;;;9.15;1.30;;;;;;;4.44;100.00;99759.66;4907564;29;20048;-73
2024/02/07 01:18:55;;;;;;;7.63;1.17;;;;;;;4.46;100.00;99757.56;4921562;29;20032;-73
2024/02/07 01:21:21;;;;;;;8.20;2.08;;;;;;;4.45;100.00;99755.16;4923339;29;20115;-74
2024/02/07 01:23:46;;;;;;;8.35;1.20;;;;;;;4.47;100.00;99753.03;4905205;29;20099;-73
2024/02/07 01:26:14;;;;;;;8.77;1.23;;;;;;;4.47;100.00;99755.69;4905339;29;20868;-73
2024/02/07 01:28:41;;;;;;;9.60;1.25;;;;;;;4.45;100.00;99761.25;4905780;29;20055;-73
2024/02/07 01:31:07;;;;;;;7.40;1.50;;;;;;;4.46;100.00;99749.59;4921159;29;20489;-72
2024/02/07 01:33:36;;;;;;;7.72;1.05;;;;;;;4.46;100.00;99744.28;4918339;29;20039;-73
2024/02/07 01:36:02;;;;;;;8.02;1.20;;;;;;;4.42;100.00;99745.06;4916749;29;20082;-73
2024/02/07 01:38:29;;;;;;;8.18;2.08;;;;;;;4.45;100.00;99750.66;4942258;28;20082;-72
2024/02/07 01:40:57;;;;;;;;;;;;;;;4.47;100.00;99742.44;4922983;29;20103;-73
2024/02/07 01:43:29;;;;;;;10.77;1.80;;;;;;;4.46;100.00;99752.25;4917705;29;20005;-73
2024/02/07 01:45:55;;;;;;;9.48;1.20;;;;;;;4.49;100.00;99746.44;4923839;29;20097;-72
2024/02/07 01:48:22;;;;;;;10.48;2.22;;;;;;;4.48;100.00;99752.81;4923655;29;20517;-72
2024/02/07 01:50:51;;;;;;;4.97;1.60;;;;;;;4.49;100.00;99749.09;4922422;29;20405;-72
2024/02/07 01:53:17;;;;;;;6.53;1.67;;;;;;;4.48;100.00;99752.81;4920926;29;20128;-75
2024/02/07 01:55:44;;;;;;;;;;;;;;;4.50;100.00;99753.34;4925816;29;20152;-73
2024/02/07 01:58:11;;;;;;;10.75;1.30;;;;;;;4.49;100.00;99753.63;4924394;29;19919;-72
2024/02/07 02:00:37;;;;;;;5.38;1.27;;;;;;;4.50;100.00;99755.22;4906564;29;20052;-73
2024/02/07 02:03:03;;;;;;;7.22;1.40;;;;;;;4.51;100.00;99748.84;4911808;23;20557;-77
2024/02/07 02:05:29;;;;;;;7.03;1.85;;;;;;;4.51;100.00;99741.69;4938542;28;20413;-78
2024/02/07 02:07:57;;;;;;;7.07;1.27;;;;;;;4.51;100.00;99747.00;4908542;29;20043;-77
2024/02/07 02:10:23;;;;;;;8.38;2.35;;;;;;;4.52;100.00;99732.69;4908190;29;20146;-77
2024/02/07 02:12:49;;;;;;;9.57;1.27;;;;;;;4.53;100.00;99742.22;4936903;28;20780;-77
2024/02/07 02:15:15;;;;;;;12.27;1.83;;;;;;;4.52;100.00;99730.03;4922970;29;20043;-76
2024/02/07 02:17:41;;;;;;;7.18;1.40;;;;;;;4.51;100.00;99743.53;4914368;29;20044;-78
2024/02/07 02:20:07;;;;;;;;;;;;;;;4.50;100.00;99742.75;4927195;29;20023;-78
2024/02/07 02:22:54;;;;;;;9.63;1.65;;;;;;;4.52;100.00;99737.19;4918852;29;19922;-78
2024/02/07 02:25:45;;;;;;;7.95;1.83;;;;;;;4.52;100.00;99730.03;4890395;29;20040;-77
2024/02/07 02:28:31;;;;;;;16.40;1.90;;;;;;;4.50;100.00;99737.44;4909882;29;20103;-77
2024/02/07 02:31:03;;;;;;;6.95;1.60;;;;;;;4.49;100.00;99735.06;4925931;29;20040;-80
2024/02/07 02:33:38;;;;;;;9.15;1.63;;;;;;;4.49;100.00;99730.53;4908294;29;20159;-78
2024/02/07 02:36:05;;;;;;;8.27;1.48;;;;;;;4.48;100.00;99728.94;4923872;29;20036;-80
2024/02/07 02:38:37;;;;;;;11.85;1.55;;;;;;;4.46;100.00;99731.03;4920295;29;20044;-78
2024/02/07 02:41:03;;;;;;;14.57;1.63;;;;;;;4.43;100.00;99728.91;4920239;29;20054;-78
2024/02/07 02:43:30;;;;;;;9.60;1.88;;;;;;;4.42;100.00;99716.72;4924938;29;20035;-78
2024/02/07 02:45:55;;;;;;;;;;;;;;;4.42;100.00;99724.66;4895896;29;20047;-78
2024/02/07 02:48:21;;;;;;;19.63;2.38;;;;;;;4.44;100.00;99725.19;4922321;29;19965;-79
2024/02/07 02:50:48;;;;;;;10.98;1.30;;;;;;;4.44;100.00;99725.19;4925077;29;20040;-79
2024/02/07 02:53:16;;;;;;;10.15;1.55;;;;;;;4.45;100.00;99728.66;4907216;29;20047;-78
2024/02/07 02:55:42;;;;;;;11.07;1.58;;;;;;;4.46;100.00;99731.03;4923009;29;20035;-78
2024/02/07 02:58:09;;;;;;;19.55;2.42;;;;;;;4.47;100.00;99715.94;4924393;29;20055;-76
2024/02/07 03:00:35;;;;;;;10.70;2.70;;;;;;;4.47;100.00;99724.72;4915670;29;20269;-76
2024/02/07 03:03:02;;;;;;;6.15;1.20;;;;;;;4.47;100.00;99719.41;4922034;29;20039;-77
2024/02/07 03:08:28;;;;;;;15.77;1.90;;;;;;;4.45;100.00;99718.84;4923138;29;20032;-76
2024/02/07 03:10:55;;;;;;;9.95;1.98;;;;;;;4.46;100.00;99717.78;4908680;29;20040;-78
2024/02/07 03:13:22;;;;;;;13.00;2.17;;;;;;;4.50;100.00;99723.38;4909963;29;20493;-77
2024/02/07 03:15:48;;;;;;;11.25;1.60;;;;;;;4.49;100.00;99719.94;4924125;29;20032;-77
2024/02/07 03:18:13;;;;;;;16.75;1.98;;;;;;;4.50;100.00;99737.44;4921129;29;20094;-77
2024/02/07 03:20:39;;;;;;;12.07;2.10;;;;;;;4.50;100.00;99731.34;4922417;29;20063;-78
2024/02/07 03:23:05;;;;;;;10.68;1.80;;;;;;;4.50;100.00;99732.16;4904615;29;20063;-77
2024/02/07 03:25:33;;;;;;;18.23;2.22;;;;;;;4.51;100.00;99740.88;4924226;29;20043;-78
2024/02/07 03:27:59;;;;;;;9.35;1.63;;;;;;;4.52;100.00;99737.97;4923386;29;20616;-76
2024/02/07 03:30:25;;;;;;;11.43;1.75;;;;;;;4.50;100.00;99742.75;4921206;29;20037;-76
2024/02/07 03:32:51;;;;;;;15.27;2.08;;;;;;;4.53;100.00;99744.09;4921866;29;20043;-76
2024/02/07 03:35:19;;;;;;;16.05;1.55;;;;;;;4.54;100.00;99754.47;4931554;28;20035;-77
2024/02/07 03:37:45;;;;;;;11.55;1.80;;;;;;;4.58;100.00;99760.84;4923722;29;20032;-78
2024/02/07 03:40:14;;;;;;;12.30;1.90;;;;;;;4.59;100.00;99756.31;4921074;29;20115;-76
2024/02/07 03:42:44;;;;;;;17.67;1.98;;;;;;;4.58;100.00;99754.72;4924936;29;20058;-77
2024/02/07 03:45:16;;;;;;;14.48;2.00;;;;;;;4.59;100.00;99751.81;4925047;29;20399;-77
2024/02/07 03:47:43;;;;;;;19.70;2.25;;;;;;;4.60;100.00;99756.06;4925038;29;20048;-75
2024/02/07 03:50:15;;;;;;;15.10;2.45;;;;;;;4.62;100.00;99751.31;4925489;29;20036;-75
2024/02/07 03:52:45;;;;;;;19.05;2.30;;;;;;;4.65;100.00;99753.47;4919784;29;20043;-78
2024/02/07 03:55:12;;;;;;;16.67;1.88;;;;;;;4.64;100.00;99759.81;4919836;29;20150;-76
2024/02/07 03:57:43;;;;;;;12.32;2.15;;;;;;;4.65;100.00;99757.97;4932087;28;20051;-75
2024/02/07 04:00:13;;;;;;;13.20;2.33;;;;;;;4.65;100.00;99757.97;4923598;29;20070;-75
2024/02/07 04:02:40;;;;;;;18.27;2.42;;;;;;;4.64;100.00;99754.53;4924572;29;20040;-75
2024/02/07 04:05:10;;;;;;;14.95;2.67;;;;;;;4.63;100.00;99758.22;4905658;29;20543;-77
2024/02/07 04:07:36;;;;;;;14.35;2.63;;;;;;;4.63;100.00;99758.22;4923171;29;20039;-75
2024/02/07 04:10:09;;;;;;;18.98;3.00;;;;;;;4.60;100.00;99747.31;4908279;29;20031;-76
2024/02/07 05:15:51;;;;;;;9.68;1.45;;;;;;;4.05;100.00;99851.78;4919402;29;20055;-78
2024/02/07 05:18:18;;;;;;;;;;;;;;;4.04;100.00;99845.69;4907366;29;20082;-77
2024/02/07 05:20:44;;;;;;;10.98;1.38;;;;;;;4.02;100.00;99857.59;4938065;29;19962;-78
2024/02/07 05:23:10;;;;;;;14.63;2.05;;;;;;;4.02;100.00;99857.59;4902579;29;20046;-77
2024/02/07 05:25:37;;;;;;;8.40;2.08;;;;;;;3.97;100.00;99870.75;4923915;29;20035;-76
2024/02/07 05:28:02;;;;;;;12.20;1.92;;;;;;;4.00;100.00;99876.38;4920319;29;20035;-79
2024/02/07 05:30:28;;;;;;;10.68;1.88;;;;;;;3.99;100.00;99871.31;4921295;29;20090;-78
2024/02/07 05:32:54;;;;;;;10.10;1.92;;;;;;;3.99;100.00;99874.75;4922376;29;20046;-78
2024/02/07 05:35:19;;;;;;;15.38;2.33;;;;;;;3.96;100.00;99879.75;4921326;29;20095;-77
2024/02/07 05:37:45;;;;;;;8.77;1.60;;;;;;;3.92;100.00;99890.03;4920770;29;20130;-78
2024/02/07 05:40:12;;;;;;;14.38;1.83;;;;;;;3.91;100.00;99893.72;4905825;29;20064;-77
2024/02/07 05:42:37;;;;;;;12.98;2.00;;;;;;;3.89;100.00;99885.25;4901623;29;20043;-78
2024/02/07 05:45:03;;;;;;;10.77;1.33;;;;;;;3.91;100.00;99899.03;4908439;29;20044;-77
2024/02/07 05:47:30;;;;;;;10.10;1.85;;;;;;;3.87;100.00;99903.25;4936237;28;20405;-76
2024/02/07 05:49:56;;;;;;;11.57;1.80;;;;;;;3.87;100.00;99907.75;4905822;29;20152;-77
2024/02/07 05:52:23;;;;;;;16.23;2.05;;;;;;;3.85;100.00;99918.56;4907614;29;20121;-78
2024/02/07 05:54:49;;;;;;;11.23;1.92;;;;;;;3.76;100.00;99902.28;4908188;29;20043;-78
2024/02/07 05:57:15;;;;;;;10.95;2.17;;;;;;;3.82;100.00;99916.41;4921808;29;20043;-77
2024/02/07 05:59:41;;;;;;;12.77;1.75;;;;;;;3.76;100.00;99917.38;4920201;29;20119;-78
2024/02/07 06:02:07;;;;;;;18.58;2.20;;;;;;;3.75;100.00;99934.31;4922560;29;20119;-79
2024/02/07 06:04:34;;;;;;;12.95;2.20;;;;;;;3.74;100.00;99945.97;4919441;29;20071;-78
2024/02/07 06:07:00;;;;;;;7.35;1.65;;;;;;;3.70;100.00;99944.84;4904802;29;20036;-79
2024/02/07 06:09:25;;;;;;;15.30;2.65;;;;;;;3.68;100.00;99946.94;4900395;29;20039;-78
2024/02/07 06:11:51;;;;;;;10.65;1.73;;;;;;;3.62;100.00;99953.19;4922306;29;20044;-78
2024/02/07 06:14:17;;;;;;;13.82;1.48;;;;;;;3.60;100.00;99950.00;4919414;29;20027;-77
2024/02/07 06:16:43;;;;;;;13.85;3.60;;;;;;;3.55;100.00;99953.38;4916728;29;20032;-76
2024/02/07 06:19:09;;;;;;;8.75;1.77;;;;;;;3.53;100.00;99960.75;4921942;29;20028;-78
2024/02/07 06:21:34;;;;;;;12.73;1.65;;;;;;;3.51;100.00;99957.53;4920022;29;20031;-76
2024/02/07 06:24:00;;;;;;;14.70;1.80;;;;;;;3.49;100.00;99963.06;4889662;29;20718;-77
2024/02/07 06:26:26;;;;;;;11.23;1.77;;;;;;;3.46;100.00;99968.88;4922751;29;20032;-76
2024/02/07 06:28:51;;;;;;;13.75;1.50;;;;;;;3.45;100.00;99967.25;4926029;29;20115;-77
2024/02/07 06:31:18;;;;;;;10.95;1.70;;;;;;;3.39;100.00;99976.16;4927678;29;20563;-77
2024/02/07 06:33:44;;;;;;;9.10;1.63;;;;;;;3.39;100.00;99970.06;4925954;29;20035;-76
2024/02/07 06:36:10;;;;;;;13.52;1.50;;;;;;;3.37;100.00;99972.13;4924647;29;20036;-76
2024/02/07 06:38:35;;;;;;;11.18;1.90;;;;;;;3.35;100.00;99971.59;4926662;29;20158;-76
2024/02/07 06:41:01;;;;;;;14.95;1.65;;;;;;;3.30;100.00;99974.94;4926932;29;20039;-78
2024/02/07 06:43:27;;;;;;;10.60;1.50;;;;;;;3.26;100.00;99989.72;4908512;29;20055;-77
2024/02/07 06:45:53;;;;;;;11.73;1.70;;;;;;;3.29;100.00;99995.31;4924278;29;20043;-79
2024/02/07 06:48:19;;;;;;;11.52;1.92;;;;;;;3.25;100.00;100001.31;4924541;29;20028;-78
2024/02/07 06:50:47;;;;;;;9.55;1.85;;;;;;;3.23;100.00;99998.13;4919299;29;20159;-77
2024/02/07 06:53:13;;;;;;;10.18;1.60;;;;;;;3.17;100.00;100010.44;4926407;29;20036;-78
2024/02/07 06:55:39;;;;;;;13.60;2.13;;;;;;;3.18;100.00;100016.53;4924953;28;20036;-77
2024/02/07 06:58:05;;;;;;;8.75;1.60;;;;;;;3.14;100.00;100012.78;4919558;29;20118;-77
2024/02/07 07:00:31;;;;;;;8.15;2.17;;;;;;;3.15;100.00;100024.97;4929103;29;20493;-78
2024/02/07 07:02:56;;;;;;;8.65;1.55;;;;;;;3.10;100.00;100030.16;4910386;29;20036;-79
2024/02/07 07:05:22;;;;;;;9.07;1.83;;;;;;;3.09;100.00;100039.94;4923949;29;20036;-78
2024/02/07 07:07:48;;;;;;;10.27;1.98;;;;;;;3.07;100.00;100036.75;4909832;29;20094;-76
2024/02/07 07:10:14;;;;;;;7.13;1.65;;;;;;;3.04;100.00;100042.50;4926074;29;20090;-77
2024/02/07 07:12:40;;;;;;;10.23;1.85;;;;;;;3.00;100.00;100050.13;4927148;29;20036;-79
2024/02/07 07:15:06;;;;;;;9.23;1.73;;;;;;;2.94;100.00;100047.59;4926566;29;20054;-77
2024/02/07 07:17:32;;;;;;;14.77;2.47;;;;;;;2.91;100.00;100048.91;4928235;29;20528;-77
2024/02/07 07:19:58;;;;;;;11.07;2.28;;;;;;;2.88;100.00;100044.06;4939485;28;20059;-78
2024/02/07 07:22:24;;;;;;;14.52;1.67;;;;;;;2.86;100.00;100051.44;4924543;29;20127;-78
2024/02/07 07:24:50;;;;;;;13.63;2.35;;;;;;;2.85;100.00;100044.53;4923588;29;20175;-79
2024/02/07 07:27:16;;;;;;;10.60;1.67;;;;;;;2.86;100.00;100055.94;4907846;29;20126;-78
2024/02/07 07:29:42;;;;;;;13.02;2.28;;;;;;;2.83;100.00;100061.66;4920594;29;20055;-78
2024/02/07 07:32:09;;;;;;;19.52;1.90;;;;;;;2.84;100.00;100063.25;4917493;29;20139;-77
2024/02/07 07:34:35;;;;;;;10.52;1.17;;;;;;;2.82;100.00;100073.28;4926093;29;20075;-77
2024/02/07 07:37:02;;;;;;;;;;;;;;;2.79;100.00;100071.94;4910464;29;20048;-77
2024/02/07 07:39:27;;;;;;;9.60;1.27;;;;;;;2.79;100.00;100079.84;4935764;28;19915;-77
2024/02/07 07:41:53;;;;;;;9.43;2.00;;;;;;;2.79;100.00;100082.50;4907792;29;20943;-78
2024/02/07 07:44:19;;;;;;;10.80;1.95;;;;;;;2.80;100.00;100089.41;4920690;29;20417;-79
2024/02/07 07:46:45;;;;;;;12.27;2.55;;;;;;;2.85;100.00;100102.72;4921901;29;20624;-77
2024/02/07 07:49:11;;;;;;;8.88;1.65;;;;;;;2.85;100.00;100109.84;4919503;29;20035;-77
2024/02/07 07:51:38;;;;;;;13.88;2.33;;;;;;;2.86;100.00;100112.25;4922762;29;20585;-77
2024/02/07 07:54:03;;;;;;;9.70;1.48;;;;;;;2.90;100.00;100115.22;4926555;29;20055;-76
2024/02/07 07:56:31;;;;;;;13.00;1.67;;;;;;;2.89;100.00;100117.06;4926673;29;20040;-79
2024/02/07 07:58:57;;;;;;;9.43;1.85;;;;;;;2.89;100.00;100109.13;4906127;29;20039;-79
2024/02/07 08:01:23;;;;;;;11.13;1.90;;;;;;;2.92;100.00;100121.91;4908857;29;20141;-78
2024/02/07 08:03:50;;;;;;;9.57;1.83;;;;;;;2.93;100.00;100126.16;4924465;29;20031;-78
2024/02/07 08:06:16;;;;;;;12.05;1.70;;;;;;;2.98;100.00;100128.06;4919709;29;20529;-78
2024/02/07 08:08:42;;;;;;;8.00;1.83;;;;;;;3.01;100.00;100143.50;4911332;29;20036;-78
2024/02/07 08:11:08;;;;;;;9.48;2.25;;;;;;;3.03;100.00;100140.63;4929496;29;20046;-76
2024/02/07 08:13:34;;;;;;;7.57;1.70;;;;;;;3.05;100.00;100162.34;4925352;29;20032;-77
2024/02/07 08:16:00;;;;;;;11.63;1.50;;;;;;;3.05;100.00;100151.75;4924299;29;20047;-77
2024/02/07 08:18:26;;;;;;;8.45;2.10;;;;;;;3.07;100.00;100153.16;4908221;29;21031;-77
2024/02/07 08:20:53;;;;;;;10.73;2.05;;;;;;;3.03;100.00;100159.13;4923587;29;20035;-76
2024/02/07 08:23:19;;;;;;;9.57;1.40;;;;;;;3.06;100.00;100166.63;4916534;29;20497;-80
2024/02/07 08:25:44;;;;;;;9.48;2.40;;;;;;;3.09;100.00;100166.94;4922660;29;20110;-78
2024/02/07 08:28:10;;;;;;;12.93;1.75;;;;;;;3.17;100.00;100168.41;4906866;29;20035;-77
2024/02/07 08:30:35;;;;;;;12.68;2.38;;;;;;;3.20;100.00;100162.66;4919175;29;20099;-78
2024/02/07 08:33:04;;;;;;;19.40;2.70;;;;;;;3.26;100.00;100159.09;4919561;29;20031;-78
2024/02/07 08:35:30;;;;;;;9.05;1.63;;;;;;;3.36;100.00;100167.19;4914960;29;20082;-78
2024/02/07 08:37:58;;;;;;;8.80;1.85;;;;;;;3.43;100.00;100173.16;4901955;29;20047;-77
2024/02/07 08:40:26;;;;;;;6.60;1.98;;;;;;;3.50;100.00;100165.06;4920255;29;20082;-77
2024/02/07 08:42:51;;;;;;;9.80;1.70;;;;;;;3.50;100.00;100165.06;4920017;29;20035;-77
2024/02/07 08:45:17;;;;;;;9.13;1.35;;;;;;;3.55;100.00;100168.63;4919752;29;20555;-77
2024/02/07 08:47:45;;;;;;;9.82;1.60;;;;;;;3.57;100.00;100168.38;4924230;29;20062;-77
2024/02/07 08:50:11;;;;;;;10.05;1.77;;;;;;;3.62;100.00;100170.31;4925704;29;20806;-78
2024/02/07 08:52:40;;;;;;;11.10;1.67;;;;;;;3.66;100.00;100188.16;4923330;29;20504;-78
2024/02/07 08:55:09;;;;;;;11.77;1.70;;;;;;;3.70;100.00;100183.19;4924606;29;20042;-76
2024/02/07 08:57:36;;;;;;;16.73;1.90;;;;;;;3.70;100.00;100191.13;4922737;29;20040;-77
2024/02/07 09:00:03;;;;;;;9.65;1.52;;;;;;;3.69;100.00;100197.47;4921617;29;20023;-77
2024/02/07 09:02:29;;;;;;;9.30;1.95;;;;;;;3.67;100.00;100194.25;4919811;29;20669;-78
2024/02/07 09:04:56;;;;;;;13.27;2.25;;;;;;;3.67;100.00;100195.06;4927287;29;20509;-78
2024/02/07 09:07:24;;;;;;;9.80;1.40;;;;;;;3.78;100.00;100201.31;4923681;29;20552;-76
2024/02/07 09:09:50;;;;;;;10.88;2.20;;;;;;;3.87;100.00;100197.28;4921930;29;20074;-76
2024/02/07 09:12:15;;;;;;;14.75;1.60;;;;;;;3.95;100.00;100209.31;4919948;29;20118;-77
2024/02/07 09:14:41;;;;;;;10.30;1.83;;;;;;;3.99;100.00;100219.19;4924820;29;20070;-77
2024/02/07 09:17:06;;;;;;;12.02;1.60;;;;;;;4.01;100.00;100211.03;4921245;29;20437;-78
2024/02/07 09:19:32;;;;;;;10.85;1.70;;;;;;;4.03;100.00;100219.53;4924847;29;20047;-78
2024/02/07 09:21:59;;;;;;;10.52;2.38;;;;;;;4.05;100.00;100218.22;4934141;28;20074;-78
2024/02/07 09:24:24;;;;;;;6.68;1.35;;;;;;;4.04;100.00;100213.19;4920055;29;20468;-77
2024/02/07 09:26:53;;;;;;;14.25;2.10;;;;;;;4.04;100.00;100224.56;4923470;29;20040;-78
2024/02/07 09:29:19;;;;;;;8.70;1.42;;;;;;;4.02;100.00;100226.66;4919371;29;20033;-77
2024/02/07 09:31:45;;;;;;;17.65;2.42;;;;;;;4.01;100.00;100227.72;4922304;29;20047;-77
2024/02/07 09:34:11;;;;;;;10.93;2.00;;;;;;;4.01;100.00;100229.56;4922334;29;20729;-77
2024/02/07 09:36:38;;;;;;;12.20;1.77;;;;;;;4.02;100.00;100237.28;4920225;29;20060;-76
2024/02/07 09:39:04;;;;;;;10.50;1.95;;;;;;;4.03;100.00;100241.53;4921373;29;20091;-75
2024/02/07 09:41:32;;;;;;;11.10;1.50;;;;;;;4.06;100.00;100259.59;4921466;29;20036;-76
2024/02/07 09:44:01;;;;;;;9.95;2.28;;;;;;;4.06;100.00;100240.22;4921022;29;20032;-75
2024/02/07 09:46:32;;;;;;;11.73;1.70;;;;;;;4.05;100.00;100247.38;4908591;29;20532;-77
2024/02/07 09:48:58;;;;;;;16.50;2.38;;;;;;;4.09;100.00;100248.53;4921083;29;20107;-74
2024/02/07 09:51:24;;;;;;;13.25;2.15;;;;;;;4.11;100.00;100248.28;4905242;29;20114;-75
2024/02/07 09:53:51;;;;;;;11.52;2.30;;;;;;;4.17;100.00;100257.13;4919692;29;20074;-74
2024/02/07 09:56:18;;;;;;;16.67;1.95;;;;;;;4.22;100.00;100259.88;4906797;29;20053;-76
2024/02/07 09:58:44;;;;;;;13.13;1.65;;;;;;;4.23;100.00;100267.56;4906101;29;20043;-75
2024/02/07 10:01:13;;;;;;;10.85;1.70;;;;;;;4.28;100.00;100259.72;4936163;29;20119;-77
2024/02/07 10:03:42;;;;;;;12.45;1.80;;;;;;;4.32;100.00;100260.81;4902757;29;20143;-77
2024/02/07 10:06:09;;;;;;;13.27;2.45;;;;;;;4.35;100.00;100256.91;4918626;29;20058;-74
2024/02/07 10:08:36;;;;;;;11.77;1.73;;;;;;;4.39;100.00;100260.66;4924298;29;20043;-76
2024/02/07 10:11:02;;;;;;;7.78;1.80;;;;;;;4.39;100.00;100260.66;4917029;29;20529;-76
2024/02/07 10:13:28;;;;;;;8.25;1.52;;;;;;;4.41;100.00;100269.22;4922448;29;20127;-74
2024/02/07 10:15:54;;;;;;;14.13;2.25;;;;;;;4.46;100.00;100265.81;4922215;29;20126;-76
2024/02/07 10:18:19;;;;;;;13.18;1.60;;;;;;;4.46;100.00;100277.22;4920658;29;20071;-76
2024/02/07 10:20:55;;;;;;;14.25;1.70;;;;;;;4.47;100.00;100273.56;4925233;29;20038;-75
2024/02/07 10:23:21;;;;;;;14.13;1.85;;;;;;;4.46;100.00;100282.53;4916031;29;20604;-75
2024/02/07 10:25:53;;;;;;;;;;;;;;;4.52;100.00;100292.19;4905280;29;20040;-75
2024/02/07 10:28:20;;;;;;;7.93;1.30;;;;;;;4.52;100.00;100305.44;4924854;29;20398;-75
2024/02/07 10:31:02;;;;;;;8.90;1.58;;;;;;;4.54;100.00;100298.06;4923763;29;20036;-76
2024/02/07 10:33:33;;;;;;;16.30;2.13;;;;;;;4.56;100.00;100297.81;4936767;28;20043;-77
2024/02/07 10:36:03;;;;;;;14.25;2.22;;;;;;;4.60;100.00;100304.22;4922014;29;20035;-76
2024/02/07 10:38:32;;;;;;;10.73;1.58;;;;;;;4.65;100.00;100309.63;4925844;29;20048;-77
2024/02/07 10:40:57;;;;;;;11.40;1.73;;;;;;;4.65;100.00;100301.66;4924430;29;20070;-76
2024/02/07 10:43:24;;;;;;;11.98;1.48;;;;;;;4.65;100.00;100302.47;4904392;29;20142;-76
2024/02/07 10:46:13;;;;;;;12.38;2.05;;;;;;;4.69;100.00;100307.31;4904239;29;20031;-76
2024/02/07 10:48:40;;;;;;;10.15;1.75;;;;;;;4.72;100.00;100301.50;4926117;29;20146;-73
2024/02/07 10:51:06;;;;;;;11.20;1.92;;;;;;;4.72;100.00;100309.47;4925292;29;20032;-76
2024/02/07 10:53:32;;;;;;;10.95;2.20;;;;;;;4.78;100.00;100305.84;4928254;29;20050;-73
2024/02/07 10:55:59;;;;;;;6.90;1.95;;;;;;;4.85;100.00;100317.09;4925220;29;20110;-73
2024/02/07 10:58:27;;;;;;;6.90;1.20;;;;;;;4.93;100.00;100309.53;4927322;29;20069;-73
2024/02/07 11:00:55;;;;;;;7.30;1.70;;;;;;;4.99;100.00;100306.97;4927539;29;20031;-73
2024/02/07 11:03:23;;;;;;;4.80;1.25;;;;;;;5.05;100.00;100301.50;4908084;29;20081;-73
2024/02/07 11:05:49;;;;;;;11.70;1.67;;;;;;;5.13;100.00;100308.22;4923301;29;20039;-72
2024/02/07 11:08:15;;;;;;;9.15;1.75;;;;;;;5.11;100.00;100292.56;4927345;29;20045;-73
2024/02/07 11:10:41;;;;;;;10.27;2.42;;;;;;;5.10;100.00;100298.91;4921957;29;20122;-73
2024/02/07 11:13:11;;;;;;;5.53;1.35;;;;;;;5.17;100.00;100310.16;4921464;29;20127;-72
2024/02/07 11:15:38;;;;;;;11.75;1.50;;;;;;;5.22;100.00;100298.03;4937843;28;20087;-72
2024/02/07 11:18:07;;;;;;;10.38;2.42;;;;;;;5.30;100.00;100284.31;4941566;28;20090;-74
2024/02/07 11:20:33;;;;;;;9.48;1.40;;;;;;;5.34;100.00;100288.06;4900427;29;20803;-72
2024/02/07 11:23:06;;;;;;;8.63;2.45;;;;;;;5.36;100.00;100309.88;4922214;29;20059;-74
2024/02/07 11:25:34;;;;;;;7.45;1.20;;;;;;;5.36;100.00;100315.19;4920955;29;20036;-75
2024/02/07 11:28:00;;;;;;;8.88;1.80;;;;;;;5.29;100.00;100304.75;4925243;29;20050;-74
2024/02/07 11:30:26;;;;;;;9.25;1.88;;;;;;;5.27;100.00;100314.81;4924789;29;20031;-73
2024/02/07 11:32:52;;;;;;;10.85;2.10;;;;;;;5.28;100.00;100308.44;4918041;29;20079;-74
2024/02/07 11:35:22;;;;;;;9.43;1.63;;;;;;;5.30;100.00;100310.88;4892259;29;20150;-74
2024/02/07 11:37:51;;;;;;;15.80;2.55;;;;;;;5.31;100.00;100309.81;4918807;29;20054;-75
2024/02/07 11:40:19;;;;;;;7.30;1.45;;;;;;;5.28;100.00;100310.28;4910938;29;20468;-75
2024/02/07 11:42:45;;;;;;;12.30;1.70;;;;;;;5.23;100.00;100315.56;4942544;28;20090;-74
2024/02/07 11:45:13;;;;;;;10.98;1.40;;;;;;;5.26;100.00;100317.72;4924937;29;20872;-74
2024/02/07 11:47:45;;;;;;;8.88;1.58;;;;;;;5.26;100.00;100312.41;4923547;29;20076;-74
2024/02/07 11:50:15;;;;;;;12.38;1.52;;;;;;;5.28;100.00;100315.59;4923852;29;20523;-74
2024/02/07 11:52:43;;;;;;;11.57;1.77;;;;;;;5.23;100.00;100318.22;4925237;29;20036;-74
2024/02/07 11:55:11;;;;;;;9.18;1.92;;;;;;;5.24;100.00;100307.34;4922875;29;20585;-74
2024/02/07 11:57:42;;;;;;;10.77;1.63;;;;;;;5.26;100.00;100321.16;4909507;29;20110;-75
2024/02/07 12:00:14;;;;;;;9.00;1.58;;;;;;;5.29;100.00;100327.84;4925730;29;20035;-75
2024/02/07 12:02:45;;;;;;;12.52;1.75;;;;;;;5.31;100.00;100320.44;4939478;28;20103;-74
2024/02/07 12:05:17;;;;;;;8.45;1.40;;;;;;;5.33;100.00;100326.28;4926289;29;20161;-75
2024/02/07 12:07:43;;;;;;;13.02;1.50;;;;;;;5.31;100.00;100320.44;4922387;29;20075;-75
2024/02/07 12:10:10;;;;;;;8.00;1.92;;;;;;;5.29;100.00;100328.66;4924271;29;20735;-74
2024/02/07 12:12:36;;;;;;;6.97;1.23;;;;;;;5.29;100.00;100328.66;4919825;29;20046;-75
2024/02/07 12:15:02;;;;;;;10.52;2.13;;;;;;;5.31;100.00;100331.06;4902134;29;20482;-74
2024/02/07 12:17:28;;;;;;;9.65;2.20;;;;;;;5.34;100.00;100333.22;4921697;29;20513;-76
2024/02/07 12:19:58;;;;;;;12.93;1.85;;;;;;;5.31;100.00;100333.72;4925423;29;20040;-75
2024/02/07 12:22:24;;;;;;;8.02;1.38;;;;;;;5.31;100.00;100333.72;4919336;29;20047;-75
2024/02/07 12:24:52;;;;;;;12.13;1.60;;;;;;;5.33;100.00;100328.94;4908572;29;20043;-74
2024/02/07 12:27:18;;;;;;;9.02;1.45;;;;;;;5.27;100.00;100340.53;4918549;29;20797;-75
2024/02/07 12:29:51;;;;;;;10.27;1.55;;;;;;;5.22;100.00;100359.09;4919187;29;20047;-73
2024/02/07 12:32:17;;;;;;;7.75;1.20;;;;;;;5.23;100.00;100352.72;4920098;29;20067;-75